Time;durP1;ratioP1;P1;durP2;ratioP2;P2;SDS_P1;SDS_P2;PMS_P1;PMS_P2;Temp;Humidity;BMP_temperature;BMP_pressure;BME280_temperature;BME280_humidity;BME280_pressure;Samples;Min_cycle;Max_cycle;Signal;HPM_P1;HPM_P2
2022/01/09 00:00:30;;;;;;;3.63;2.15;;;;;;;5.70;96.36;98712.66;5019271;28;20437;-76
2022/01/09 00:02:56;;;;;;;3.40;2.22;;;;;;;5.72;96.27;98718.72;5018700;28;20025;-77
2022/01/09 00:05:22;;;;;;;3.83;2.60;;;;;;;5.74;96.07;98727.47;5018925;28;20094;-77
2022/01/09 00:07:48;;;;;;;5.28;2.60;;;;;;;5.75;96.38;98731.84;5019388;28;20058;-77
2022/01/09 00:10:15;;;;;;;6.05;3.47;;;;;;;5.78;96.39;98746.66;5019337;28;20026;-78
2022/01/09 00:12:40;;;;;;;3.65;2.88;;;;;;;5.77;95.94;98760.63;5019166;28;20494;-77
2022/01/09 00:15:06;;;;;;;4.85;3.20;;;;;;;5.75;96.16;98768.53;5019221;28;20030;-77
2022/01/09 00:17:32;;;;;;;4.80;3.58;;;;;;;5.75;96.24;98780.75;5019180;28;20029;-79
2022/01/09 00:19:59;;;;;;;5.82;3.83;;;;;;;5.76;96.45;98798.22;5018425;28;20041;-78
2022/01/09 00:22:40;;;;;;;7.72;3.90;;;;;;;5.78;96.56;98801.69;5019329;28;20038;-77
2022/01/09 00:25:06;;;;;;;6.28;4.32;;;;;;;5.78;96.52;98815.69;5019044;28;20033;-77
2022/01/09 00:27:32;;;;;;;6.47;3.45;;;;;;;5.77;95.86;98818.28;5018767;28;20025;-76
2022/01/09 00:29:57;;;;;;;4.88;3.33;;;;;;;5.77;94.97;98821.78;5018450;28;20029;-77
2022/01/09 00:32:23;;;;;;;5.75;3.30;;;;;;;5.78;95.09;98835.75;5009036;28;20026;-77
2022/01/09 00:34:48;;;;;;;5.30;2.85;;;;;;;5.76;93.86;98841.00;4998742;28;20022;-79
2022/01/09 00:37:14;;;;;;;5.72;2.50;;;;;;;5.77;93.78;98850.59;4997915;28;20025;-76
2022/01/09 00:39:39;;;;;;;6.18;2.40;;;;;;;5.77;93.13;98853.22;4998753;28;20036;-76
2022/01/09 00:42:05;;;;;;;8.02;2.63;;;;;;;5.75;92.97;98860.25;4998552;28;20058;-77
2022/01/09 00:44:30;;;;;;;9.95;2.75;;;;;;;5.71;92.19;98868.97;4998385;28;20033;-76
2022/01/09 00:47:00;;;;;;;12.85;3.15;;;;;;;5.71;92.85;98868.97;4998242;28;20498;-75
2022/01/09 00:49:25;;;;;;;14.38;2.88;;;;;;;5.70;92.80;98892.56;4997809;28;20031;-76
2022/01/09 00:51:51;;;;;;;17.92;3.05;;;;;;;5.67;92.06;98890.81;4998224;28;20037;-75
2022/01/09 00:54:16;;;;;;;18.92;4.10;;;;;;;5.68;92.15;98894.31;4997932;28;20069;-77
2022/01/09 00:56:41;;;;;;;22.20;4.13;;;;;;;5.65;91.24;98900.44;4997919;28;20050;-76
2022/01/09 00:59:07;;;;;;;15.85;3.63;;;;;;;5.65;91.82;98913.53;4997823;28;20027;-75
2022/01/09 01:01:32;;;;;;;28.70;4.10;;;;;;;5.64;92.47;98927.50;4998524;28;20085;-77
2022/01/09 01:03:58;;;;;;;25.73;4.07;;;;;;;5.62;91.61;98929.25;4998265;28;20084;-78
2022/01/09 01:06:24;;;;;;;23.77;4.47;;;;;;;5.62;90.84;98934.50;4999191;28;20030;-76
2022/01/09 01:08:49;;;;;;;24.10;3.92;;;;;;;5.60;89.25;98935.34;4998607;28;20545;-77
2022/01/09 01:11:14;;;;;;;27.48;3.70;;;;;;;5.58;90.00;98953.72;4998718;28;20472;-77
2022/01/09 01:13:40;;;;;;;26.42;4.80;;;;;;;5.56;90.12;98954.56;5003235;28;20390;-77
2022/01/09 01:16:05;;;;;;;21.92;3.60;;;;;;;5.55;90.59;98956.31;5016265;28;20060;-76
2022/01/09 01:18:30;;;;;;;23.50;4.07;;;;;;;5.55;89.78;98964.19;5014179;28;20036;-78
2022/01/09 01:20:56;;;;;;;25.40;3.60;;;;;;;5.53;90.65;98979.91;5013841;28;20450;-78
2022/01/09 01:23:21;;;;;;;30.55;5.38;;;;;;;5.55;90.96;98973.78;5014254;28;20046;-77
2022/01/09 01:25:51;;;;;;;24.55;3.85;;;;;;;5.56;90.76;98986.00;5014007;28;20065;-77
2022/01/09 01:28:17;;;;;;;33.25;4.57;;;;;;;5.56;91.23;98986.88;5013908;28;20045;-78
2022/01/09 01:30:43;;;;;;;24.77;4.25;;;;;;;5.60;91.07;98990.38;5013982;28;20037;-78
2022/01/09 01:33:08;;;;;;;19.50;3.80;;;;;;;5.62;91.45;98991.25;5014031;28;20398;-78
2022/01/09 01:35:33;;;;;;;32.00;4.57;;;;;;;5.60;91.42;98998.22;5013741;28;20041;-77
2022/01/09 01:37:59;;;;;;;27.15;4.22;;;;;;;5.66;90.91;99001.75;5013932;28;20033;-78
2022/01/09 01:40:24;;;;;;;23.95;4.47;;;;;;;5.68;89.78;99020.94;4996148;28;20080;-78
2022/01/09 01:42:50;;;;;;;23.15;4.45;;;;;;;5.67;88.36;99010.47;5013926;28;20032;-77
2022/01/09 01:45:15;;;;;;;22.20;4.40;;;;;;;5.68;88.64;99020.94;5013791;28;20034;-78
2022/01/09 01:47:41;;;;;;;28.13;4.32;;;;;;;5.70;88.60;99032.31;5013412;28;20048;-78
2022/01/09 01:50:08;;;;;;;30.50;4.90;;;;;;;5.74;89.55;99041.06;5013498;28;20105;-77
2022/01/09 01:52:39;;;;;;;33.45;4.55;;;;;;;5.73;90.00;99055.00;5013724;28;20030;-78
2022/01/09 01:55:08;;;;;;;23.65;4.13;;;;;;;5.73;90.35;99055.88;5013482;28;20064;-78
2022/01/09 01:57:33;;;;;;;28.63;4.60;;;;;;;5.76;89.98;99060.28;5013577;28;20037;-78
2022/01/09 01:59:59;;;;;;;25.50;3.88;;;;;;;5.81;88.83;99065.53;5013586;28;20026;-78
2022/01/09 02:02:25;;;;;;;24.00;4.03;;;;;;;5.82;88.78;99067.25;5013683;28;20026;-78
2022/01/09 02:04:51;;;;;;;25.60;3.95;;;;;;;5.83;89.21;99069.91;5013238;28;20478;-79
2022/01/09 02:07:16;;;;;;;24.15;3.97;;;;;;;5.85;89.17;99076.00;5013446;28;20113;-78
2022/01/09 02:09:43;;;;;;;32.85;4.57;;;;;;;5.85;89.58;99083.00;5013437;28;20584;-78
2022/01/09 02:12:08;;;;;;;24.40;3.60;;;;;;;5.85;89.86;99086.50;5013479;28;20033;-78
2022/01/09 02:14:38;;;;;;;26.83;4.32;;;;;;;5.86;90.03;99103.09;5013293;28;20026;-78
2022/01/09 02:17:05;;;;;;;25.92;4.25;;;;;;;5.89;90.04;99101.34;5013320;28;20429;-79
2022/01/09 02:19:30;;;;;;;30.08;4.70;;;;;;;5.90;90.13;99112.69;5012931;28;20180;-78
2022/01/09 02:21:56;;;;;;;27.85;4.40;;;;;;;5.90;90.25;99113.56;5013527;28;20116;-79
2022/01/09 02:24:23;;;;;;;32.55;5.10;;;;;;;5.91;90.45;99119.69;5013266;28;20080;-78
2022/01/09 02:26:49;;;;;;;32.33;4.57;;;;;;;5.95;90.07;99121.47;5013376;28;20032;-78
2022/01/09 02:29:15;;;;;;;24.42;4.10;;;;;;;5.95;90.00;99127.63;5013128;28;20022;-77
2022/01/09 02:31:42;;;;;;;30.60;5.18;;;;;;;5.97;90.09;99131.09;5013211;28;20029;-78
2022/01/09 02:34:08;;;;;;;21.80;4.75;;;;;;;5.97;89.63;99136.34;5013249;28;20034;-77
2022/01/09 02:36:33;;;;;;;19.92;4.18;;;;;;;5.99;89.28;99150.31;5013120;28;20040;-77
2022/01/09 02:39:02;;;;;;;34.20;4.97;;;;;;;5.99;89.01;99142.47;5013436;28;20029;-79
2022/01/09 02:41:27;;;;;;;30.45;5.28;;;;;;;6.02;88.20;99154.72;5013190;28;20113;-77
2022/01/09 02:43:53;;;;;;;27.45;4.47;;;;;;;6.03;88.41;99154.69;5013137;28;20061;-78
2022/01/09 02:46:40;;;;;;;29.85;4.65;;;;;;;6.02;88.18;99160.81;5013044;28;20022;-77
2022/01/09 02:49:07;;;;;;;35.60;5.13;;;;;;;6.03;87.95;99166.94;5013004;28;20113;-78
2022/01/09 02:51:35;;;;;;;28.30;4.70;;;;;;;6.00;87.82;99170.44;5013158;28;20037;-77
2022/01/09 02:55:04;;;;;;;26.35;3.90;;;;;;;6.02;87.94;99194.03;5013183;28;20065;-77
2022/01/09 02:56:46;;;;;;;28.15;4.68;;;;;;;6.03;87.84;99182.66;5012967;28;20030;-77
2022/01/09 02:59:11;;;;;;;29.30;4.55;;;;;;;6.03;87.91;99198.41;4996510;28;20032;-77
2022/01/09 03:01:37;;;;;;;26.20;3.85;;;;;;;6.03;87.13;99190.53;5016540;28;20029;-76
2022/01/09 03:04:02;;;;;;;26.75;4.78;;;;;;;6.02;87.14;99200.16;5016625;28;20030;-78
2022/01/09 03:06:28;;;;;;;33.47;4.32;;;;;;;6.00;86.98;99214.16;5016627;28;20022;-76
2022/01/09 03:08:55;;;;;;;29.30;4.65;;;;;;;6.00;87.09;99219.38;5016596;28;20105;-76
2022/01/09 03:11:20;;;;;;;25.40;4.40;;;;;;;5.99;87.58;99213.25;5016469;28;20529;-77
2022/01/09 03:13:45;;;;;;;20.20;3.88;;;;;;;6.01;87.53;99231.63;5016333;28;20026;-76
2022/01/09 03:16:11;;;;;;;23.15;4.45;;;;;;;6.02;86.94;99233.38;5016295;28;20030;-76
2022/01/09 03:18:36;;;;;;;27.20;4.30;;;;;;;5.99;87.39;99247.31;5016352;28;20080;-77
2022/01/09 03:21:01;;;;;;;26.13;3.75;;;;;;;5.98;86.95;99255.19;5016200;28;20398;-77
2022/01/09 03:23:27;;;;;;;25.05;4.18;;;;;;;5.97;86.91;99263.94;5016523;28;20029;-77
2022/01/09 03:25:52;;;;;;;22.00;3.80;;;;;;;5.96;87.16;99268.31;5016210;28;20037;-77
2022/01/09 03:28:17;;;;;;;30.10;4.25;;;;;;;5.97;87.35;99275.31;5016217;28;20018;-77
2022/01/09 03:30:43;;;;;;;19.20;3.50;;;;;;;5.98;86.63;99273.56;5016164;28;20025;-76
2022/01/09 03:33:08;;;;;;;21.10;4.00;;;;;;;5.96;86.44;99291.91;5015942;28;20076;-76
2022/01/09 03:35:33;;;;;;;26.27;3.63;;;;;;;5.96;86.73;99275.31;5016020;28;20037;-75
2022/01/09 03:38:01;;;;;;;18.00;3.30;;;;;;;5.96;85.64;99289.28;5016112;28;20022;-75
2022/01/09 03:40:28;;;;;;;17.48;3.45;;;;;;;5.95;85.32;99298.03;5016074;28;20026;-76
2022/01/09 03:42:54;;;;;;;21.10;3.50;;;;;;;5.91;85.47;99295.31;5015968;28;20116;-77
2022/01/09 03:45:21;;;;;;;22.67;3.40;;;;;;;5.91;85.88;99303.19;5016282;28;20255;-75
2022/01/09 03:47:46;;;;;;;24.05;3.47;;;;;;;5.89;85.25;99313.69;5015740;28;20026;-75
2022/01/09 03:50:12;;;;;;;19.30;3.33;;;;;;;5.89;84.86;99320.66;5015872;28;20028;-77
2022/01/09 03:52:39;;;;;;;17.65;3.20;;;;;;;5.88;84.61;99321.53;5015716;28;20025;-76
2022/01/09 03:55:07;;;;;;;20.80;3.80;;;;;;;5.86;84.63;99337.25;5015730;28;20499;-75
2022/01/09 03:57:33;;;;;;;21.55;4.13;;;;;;;5.84;84.12;99331.13;5015834;28;20029;-76
2022/01/09 03:59:58;;;;;;;17.63;3.53;;;;;;;5.82;84.04;99335.47;5015701;28;20073;-77
2022/01/09 04:02:23;;;;;;;20.13;3.45;;;;;;;5.81;83.93;99349.44;5015350;28;20038;-77
2022/01/09 04:04:49;;;;;;;15.48;3.22;;;;;;;5.80;83.74;99368.69;5015536;28;20045;-76
2022/01/09 04:07:16;;;;;;;25.02;3.75;;;;;;;5.77;83.46;99371.28;5015449;28;20026;-77
2022/01/09 04:09:45;;;;;;;15.18;3.13;;;;;;;5.74;83.32;99376.50;5015492;28;20054;-76
2022/01/09 04:12:30;;;;;;;13.85;3.00;;;;;;;5.72;83.56;99379.09;5015497;28;20092;-75
2022/01/09 04:14:55;;;;;;;16.13;3.28;;;;;;;5.69;83.91;99383.44;5015038;28;20537;-77
2022/01/09 04:17:32;;;;;;;14.63;3.30;;;;;;;5.68;83.38;99390.44;5015368;28;20022;-76
2022/01/09 04:19:58;;;;;;;20.30;3.30;;;;;;;5.64;83.25;99396.50;4994249;28;20049;-77
2022/01/09 04:22:23;;;;;;;17.95;3.08;;;;;;;5.64;83.50;99399.13;4995925;28;20113;-76
2022/01/09 04:24:48;;;;;;;20.50;3.17;;;;;;;5.62;83.65;99400.88;4995651;28;20408;-75
2022/01/09 04:27:14;;;;;;;15.93;2.88;;;;;;;5.61;83.30;99414.84;4995548;28;20022;-76
2022/01/09 04:29:39;;;;;;;15.23;2.88;;;;;;;5.60;83.63;99418.31;4995417;28;20026;-74
2022/01/09 04:32:05;;;;;;;14.00;3.10;;;;;;;5.60;83.56;99431.41;4995474;28;20375;-76
2022/01/09 04:34:30;;;;;;;13.90;2.58;;;;;;;5.58;83.23;99432.28;4995491;28;20073;-77
2022/01/09 04:36:59;;;;;;;15.02;3.08;;;;;;;5.58;83.31;99433.16;4995447;28;20476;-76
2022/01/09 04:39:24;;;;;;;13.63;2.67;;;;;;;5.58;82.98;99437.53;4995452;28;20076;-76
2022/01/09 04:41:50;;;;;;;13.20;2.95;;;;;;;5.56;82.42;99442.75;4995688;28;20511;-75
2022/01/09 04:44:15;;;;;;;15.10;2.63;;;;;;;5.57;82.48;99448.84;4995176;28;20065;-74
2022/01/09 04:46:47;;;;;;;18.02;2.88;;;;;;;5.56;82.50;99463.69;4995128;28;20057;-76
2022/01/09 04:49:13;;;;;;;18.75;3.15;;;;;;;5.53;82.42;99466.31;4995112;28;20041;-74
2022/01/09 04:51:38;;;;;;;14.40;3.63;;;;;;;5.49;82.24;99470.66;4995181;28;20026;-76
2022/01/09 04:54:04;;;;;;;12.10;2.80;;;;;;;5.49;82.49;99472.41;4995279;28;20415;-76
2022/01/09 04:56:31;;;;;;;13.65;2.70;;;;;;;5.49;82.47;99472.41;4994978;28;20109;-75
2022/01/09 04:58:56;;;;;;;14.27;3.15;;;;;;;5.49;82.71;99482.88;4994855;28;20033;-76
2022/01/09 05:01:21;;;;;;;14.32;2.90;;;;;;;5.48;82.22;99497.72;4994821;28;20023;-77
2022/01/09 05:03:47;;;;;;;17.23;3.28;;;;;;;5.47;82.54;99506.41;4994922;28;20027;-76
2022/01/09 05:06:12;;;;;;;11.45;2.67;;;;;;;5.48;83.55;99516.06;4994875;28;20034;-77
2022/01/09 05:08:37;;;;;;;19.52;3.38;;;;;;;5.47;83.10;99511.66;4994867;28;20026;-75
2022/01/09 05:11:03;;;;;;;14.43;3.13;;;;;;;5.45;82.44;99523.00;4994868;28;20436;-76
2022/01/09 05:13:28;;;;;;;15.00;2.78;;;;;;;5.42;83.09;99536.94;4994657;28;20365;-76
2022/01/09 05:15:55;;;;;;;11.30;2.60;;;;;;;5.43;83.36;99536.06;4994656;28;20034;-76
2022/01/09 05:18:20;;;;;;;15.40;2.92;;;;;;;5.41;83.28;99535.19;4994569;28;20467;-77
2022/01/09 05:20:46;;;;;;;15.23;3.28;;;;;;;5.43;83.04;99543.03;5010104;28;20053;-74
2022/01/09 05:23:11;;;;;;;12.20;3.10;;;;;;;5.41;83.42;99548.28;5013558;28;20435;-74
2022/01/09 05:25:37;;;;;;;12.27;2.88;;;;;;;5.41;83.42;99564.00;5014138;28;20506;-76
2022/01/09 05:28:02;;;;;;;20.02;2.88;;;;;;;5.40;83.33;99572.72;5014009;28;20037;-74
2022/01/09 05:30:28;;;;;;;14.70;2.60;;;;;;;5.42;83.40;99583.22;5013983;28;20065;-74
2022/01/09 05:32:53;;;;;;;18.38;3.17;;;;;;;5.38;83.80;99571.81;5013786;28;20022;-74
2022/01/09 05:35:19;;;;;;;12.93;2.60;;;;;;;5.41;83.66;99591.94;5013972;28;20036;-74
2022/01/09 05:37:44;;;;;;;16.42;2.85;;;;;;;5.42;83.18;99583.22;5013900;28;20471;-75
2022/01/09 05:40:10;;;;;;;11.10;2.80;;;;;;;5.38;82.79;99591.91;5013761;28;20030;-76
2022/01/09 05:42:35;;;;;;;9.15;2.72;;;;;;;5.37;83.29;99588.41;5013862;28;20057;-75
2022/01/09 05:45:02;;;;;;;13.73;2.80;;;;;;;5.34;83.69;99590.09;5013603;28;20026;-75
2022/01/09 05:47:28;;;;;;;13.65;2.45;;;;;;;5.33;83.60;99589.22;5013797;28;20109;-75
2022/01/09 05:49:53;;;;;;;13.85;2.85;;;;;;;5.31;83.51;99583.09;5013665;28;20053;-75
2022/01/09 05:52:18;;;;;;;15.10;2.97;;;;;;;5.28;84.24;99607.50;5013815;28;20065;-76
2022/01/09 05:54:44;;;;;;;12.90;2.80;;;;;;;5.25;83.37;99604.84;5013431;28;20467;-77
2022/01/09 05:57:09;;;;;;;10.70;2.92;;;;;;;5.23;84.01;99606.56;5013699;28;20062;-75
2022/01/09 05:59:35;;;;;;;19.58;3.10;;;;;;;5.21;84.68;99610.03;5013539;28;20036;-75
2022/01/09 06:02:01;;;;;;;16.00;2.90;;;;;;;5.18;84.15;99618.75;5013397;28;20030;-75
2022/01/09 06:04:27;;;;;;;12.90;2.97;;;;;;;5.19;83.93;99617.00;5013386;28;20490;-76
2022/01/09 06:06:52;;;;;;;13.90;2.75;;;;;;;5.19;84.38;99622.25;5013564;28;20028;-76
2022/01/09 06:09:18;;;;;;;10.80;2.85;;;;;;;5.18;84.20;99626.59;5013354;28;20029;-76
2022/01/09 06:11:43;;;;;;;16.33;2.78;;;;;;;5.18;84.76;99629.22;5013469;28;20026;-74
2022/01/09 06:14:08;;;;;;;15.95;3.22;;;;;;;5.18;85.26;99626.59;5013271;28;20025;-73
2022/01/09 06:16:34;;;;;;;19.13;3.10;;;;;;;5.18;85.31;99630.94;5013382;28;20495;-76
2022/01/09 06:19:01;;;;;;;14.65;2.78;;;;;;;5.20;85.70;99637.09;5013230;28;20030;-75
2022/01/09 06:21:27;;;;;;;15.32;3.35;;;;;;;5.21;84.71;99636.22;5013905;28;20391;-75
2022/01/09 06:23:53;;;;;;;16.27;3.15;;;;;;;5.22;84.71;99641.50;5013310;28;20113;-76
2022/01/09 06:26:18;;;;;;;11.18;3.13;;;;;;;5.19;84.66;99644.06;5013428;28;20076;-76
2022/01/09 06:28:44;;;;;;;19.50;3.33;;;;;;;5.19;84.22;99643.19;5013192;28;20096;-74
2022/01/09 06:31:10;;;;;;;11.60;2.72;;;;;;;5.18;84.48;99652.78;5013364;28;20030;-74
2022/01/09 06:33:36;;;;;;;17.30;3.20;;;;;;;5.20;83.84;99655.41;5015089;28;20029;-76
2022/01/09 06:36:02;;;;;;;15.70;3.10;;;;;;;5.18;84.25;99660.66;5017151;28;20040;-75
2022/01/09 06:38:27;;;;;;;14.10;2.80;;;;;;;5.19;84.39;99662.41;5017162;28;20032;-74
2022/01/09 06:40:52;;;;;;;17.70;3.15;;;;;;;5.19;84.54;99665.00;5017186;28;20022;-73
2022/01/09 06:43:18;;;;;;;11.93;2.67;;;;;;;5.20;84.64;99678.97;5017273;28;20022;-74
2022/01/09 06:45:43;;;;;;;13.57;2.78;;;;;;;5.23;85.17;99668.56;5017016;28;20507;-76
2022/01/09 06:48:08;;;;;;;12.60;2.97;;;;;;;5.22;83.95;99675.53;5017314;28;20046;-77
2022/01/09 06:50:34;;;;;;;14.20;3.20;;;;;;;5.25;84.31;99686.03;5016803;28;20021;-74
2022/01/09 06:52:59;;;;;;;12.35;2.67;;;;;;;5.24;84.32;99686.03;5017178;28;20032;-74
2022/01/09 06:55:25;;;;;;;19.98;3.33;;;;;;;5.23;84.70;99692.13;5016977;28;20030;-74
2022/01/09 06:57:50;;;;;;;17.67;3.20;;;;;;;5.19;84.07;99706.91;5016726;28;20371;-73
2022/01/09 07:00:17;;;;;;;12.80;2.90;;;;;;;5.18;84.40;99694.69;5016808;28;20034;-76
2022/01/09 07:02:43;;;;;;;14.27;3.15;;;;;;;5.18;84.86;99705.16;5016944;28;20097;-75
2022/01/09 07:05:09;;;;;;;13.38;2.70;;;;;;;5.16;85.12;99712.09;5016497;28;20029;-76
2022/01/09 07:07:34;;;;;;;20.65;3.17;;;;;;;5.16;85.13;99716.47;5016674;28;20030;-76
2022/01/09 07:09:59;;;;;;;16.17;2.63;;;;;;;5.16;85.53;99717.34;5016738;28;20461;-75
2022/01/09 07:12:25;;;;;;;14.35;2.80;;;;;;;5.16;85.29;99724.31;5016765;28;20026;-76
2022/01/09 07:14:50;;;;;;;14.20;2.30;;;;;;;5.16;85.56;99733.03;5016396;28;20056;-75
2022/01/09 07:17:16;;;;;;;13.43;3.15;;;;;;;5.16;84.97;99732.16;5016535;28;20037;-74
2022/01/09 07:19:41;;;;;;;17.63;2.70;;;;;;;5.15;85.58;99733.03;5016264;28;20048;-76
2022/01/09 07:22:07;;;;;;;11.05;2.78;;;;;;;5.13;85.25;99735.59;5016230;28;20041;-76
2022/01/09 07:24:32;;;;;;;14.48;2.67;;;;;;;5.11;84.92;99741.69;5016314;28;20482;-74
2022/01/09 07:26:58;;;;;;;15.75;3.03;;;;;;;5.10;85.43;99748.69;5016285;28;20109;-75
2022/01/09 07:29:23;;;;;;;15.98;2.92;;;;;;;5.11;85.15;99741.69;5016264;28;20387;-75
2022/01/09 07:31:51;;;;;;;18.60;3.13;;;;;;;5.12;85.20;99759.16;5016249;28;20026;-76
2022/01/09 07:34:17;;;;;;;13.43;2.72;;;;;;;5.10;85.02;99753.91;5016100;28;20516;-74
2022/01/09 07:36:42;;;;;;;15.10;2.80;;;;;;;5.11;84.51;99767.88;5016004;28;20026;-74
2022/01/09 07:39:08;;;;;;;11.05;2.65;;;;;;;5.11;84.56;99771.38;5016273;28;20083;-75
2022/01/09 07:41:33;;;;;;;13.05;2.90;;;;;;;5.11;84.35;99768.75;5016051;28;20108;-75
2022/01/09 07:44:01;;;;;;;18.33;2.80;;;;;;;5.11;84.25;99775.75;5015893;28;20384;-75
2022/01/09 07:46:27;;;;;;;13.27;3.00;;;;;;;5.06;84.63;99780.91;5015463;28;20028;-75
2022/01/09 07:48:52;;;;;;;12.15;2.95;;;;;;;5.06;84.30;99785.25;5016101;28;20383;-76
2022/01/09 07:51:18;;;;;;;13.57;3.22;;;;;;;5.01;84.63;99787.78;5015693;28;20360;-74
2022/01/09 07:53:43;;;;;;;10.65;2.55;;;;;;;5.00;85.49;99797.38;5015927;28;20030;-74
2022/01/09 07:56:09;;;;;;;18.00;2.75;;;;;;;5.00;85.22;99791.25;5015717;28;20527;-74
2022/01/09 07:58:34;;;;;;;5.18;2.00;;;;;;;5.01;84.83;99790.41;5015499;28;20030;-74
2022/01/09 08:01:00;;;;;;;12.77;2.80;;;;;;;5.02;85.41;99795.69;5015643;28;20441;-75
2022/01/09 08:03:25;;;;;;;16.40;2.65;;;;;;;5.00;85.26;99792.13;5015670;28;20025;-76
2022/01/09 08:05:50;;;;;;;12.32;2.60;;;;;;;4.97;85.23;99805.19;5015453;28;20475;-76
2022/01/09 08:08:16;;;;;;;10.10;2.47;;;;;;;4.98;84.33;99806.97;5015478;28;20518;-77
2022/01/09 08:10:41;;;;;;;11.45;2.38;;;;;;;4.95;84.34;99804.28;5015450;28;20026;-75
2022/01/09 08:13:07;;;;;;;11.18;2.90;;;;;;;4.92;83.98;99813.81;5015357;28;20413;-74
2022/01/09 08:15:32;;;;;;;14.88;3.13;;;;;;;4.90;84.49;99823.38;5015397;28;20040;-74
2022/01/09 08:17:57;;;;;;;13.70;2.50;;;;;;;4.86;84.00;99824.19;5015420;28;20025;-74
2022/01/09 08:20:23;;;;;;;11.60;2.42;;;;;;;4.87;84.83;99841.66;5015045;28;20177;-77
2022/01/09 08:22:49;;;;;;;14.02;2.65;;;;;;;4.89;84.60;99839.97;5015287;28;20026;-75
2022/01/09 08:25:17;;;;;;;12.68;3.05;;;;;;;4.86;84.44;99845.13;5015281;28;20486;-76
2022/01/09 08:27:43;;;;;;;9.73;2.53;;;;;;;4.84;84.30;99845.13;5015208;28;20463;-77
2022/01/09 08:30:11;;;;;;;11.40;2.67;;;;;;;4.83;85.07;99851.19;5015032;28;20034;-74
2022/01/09 08:32:37;;;;;;;8.45;2.33;;;;;;;4.85;83.89;99857.34;5015063;28;20037;-75
2022/01/09 08:35:03;;;;;;;12.15;2.60;;;;;;;4.81;84.22;99847.66;5014819;28;20033;-75
2022/01/09 08:37:29;;;;;;;7.45;2.58;;;;;;;4.83;83.85;99853.78;5014659;28;20092;-75
2022/01/09 08:39:54;;;;;;;18.75;6.45;;;;;;;4.82;84.19;99854.66;5014762;28;20054;-75
2022/01/09 08:42:19;;;;;;;45.67;16.90;;;;;;;4.82;83.72;99854.66;5014936;28;20029;-74
2022/01/09 08:44:45;;;;;;;24.27;7.25;;;;;;;4.85;84.18;99862.56;5014661;28;20022;-75
2022/01/09 08:47:10;;;;;;;9.98;3.13;;;;;;;4.88;84.77;99867.88;5014725;28;20026;-73
2022/01/09 08:49:36;;;;;;;19.13;6.68;;;;;;;4.88;85.09;99878.34;5014686;28;20026;-74
2022/01/09 08:52:02;;;;;;;13.10;2.95;;;;;;;4.89;85.36;99871.38;5014592;28;20111;-76
2022/01/09 08:54:29;;;;;;;21.27;8.27;;;;;;;4.92;85.78;99884.50;5014203;28;20033;-74
2022/01/09 08:56:54;;;;;;;13.65;2.83;;;;;;;4.92;85.27;99879.25;5013536;28;20061;-76
2022/01/09 08:59:20;;;;;;;15.27;2.92;;;;;;;4.90;85.61;99876.63;5014617;28;20033;-76
2022/01/09 09:01:45;;;;;;;10.55;3.00;;;;;;;4.92;85.81;99876.63;5014610;28;20430;-74
2022/01/09 09:04:11;;;;;;;15.30;2.97;;;;;;;4.94;85.46;99888.03;5014500;28;20486;-74
2022/01/09 09:06:36;;;;;;;12.82;2.60;;;;;;;5.02;85.66;99900.41;5014498;28;20030;-75
2022/01/09 09:09:02;;;;;;;11.48;3.20;;;;;;;5.13;85.20;99897.06;5014234;28;20117;-76
2022/01/09 09:11:27;;;;;;;13.45;2.47;;;;;;;5.20;85.22;99907.69;5014562;28;20041;-74
2022/01/09 09:13:54;;;;;;;11.23;2.50;;;;;;;5.24;84.35;99908.63;5014385;28;20483;-74
2022/01/09 09:16:19;;;;;;;16.60;4.15;;;;;;;5.26;84.65;99909.53;5014188;28;20088;-75
2022/01/09 09:18:47;;;;;;;9.70;3.35;;;;;;;5.30;84.72;99915.69;5014273;28;20021;-74
2022/01/09 09:21:13;;;;;;;9.95;4.10;;;;;;;5.38;84.93;99925.44;4996328;28;20064;-76
2022/01/09 09:23:38;;;;;;;9.32;3.10;;;;;;;5.42;84.55;99932.50;5014006;28;20034;-74
2022/01/09 09:26:04;;;;;;;15.35;2.90;;;;;;;5.41;84.70;99932.50;5014262;28;20087;-75
2022/01/09 09:28:30;;;;;;;11.60;2.67;;;;;;;5.41;85.26;99936.00;5014036;28;20360;-75
2022/01/09 09:30:55;;;;;;;9.60;2.30;;;;;;;5.39;85.55;99935.06;5014121;28;20048;-76
2022/01/09 09:33:20;;;;;;;8.63;2.10;;;;;;;5.35;84.58;99940.22;5014004;28;20495;-76
2022/01/09 09:35:46;;;;;;;12.93;3.22;;;;;;;5.32;85.33;99942.81;5013857;28;20108;-75
2022/01/09 09:38:11;;;;;;;11.75;2.75;;;;;;;5.26;85.27;99954.03;5013841;28;20471;-75
2022/01/09 09:40:37;;;;;;;11.27;2.60;;;;;;;5.21;85.38;99943.50;5013757;28;20022;-77
2022/01/09 09:43:03;;;;;;;10.10;3.38;;;;;;;5.26;86.54;99954.94;5013845;28;20045;-76
2022/01/09 09:45:29;;;;;;;9.82;2.95;;;;;;;5.41;86.11;99958.69;5013699;28;20037;-77
2022/01/09 09:47:54;;;;;;;15.40;3.00;;;;;;;5.49;85.81;99955.34;5013718;28;20026;-76
2022/01/09 09:50:20;;;;;;;12.93;2.80;;;;;;;5.53;85.74;99965.03;5013741;28;20360;-77
2022/01/09 09:52:48;;;;;;;19.02;3.50;;;;;;;5.53;85.48;99961.53;5013789;28;20088;-76
2022/01/09 09:55:15;;;;;;;14.02;3.20;;;;;;;5.56;85.66;99964.16;5013583;28;20030;-76
2022/01/09 09:57:40;;;;;;;11.07;3.63;;;;;;;5.59;85.38;99964.22;5013643;28;20502;-75
2022/01/09 10:00:10;;;;;;;13.88;3.33;;;;;;;5.65;85.75;99977.44;5013495;28;20053;-75
2022/01/09 10:02:55;;;;;;;15.52;4.97;;;;;;;5.71;85.25;99974.91;5013576;28;20041;-75
2022/01/09 10:05:26;;;;;;;15.25;4.18;;;;;;;5.77;84.68;99971.50;5013616;28;20036;-75
2022/01/09 10:07:53;;;;;;;11.63;3.20;;;;;;;5.80;84.74;99973.31;5013134;28;20037;-75
2022/01/09 10:10:21;;;;;;;10.10;4.18;;;;;;;5.85;84.03;99979.50;5013549;28;20022;-76
2022/01/09 10:12:48;;;;;;;16.17;3.88;;;;;;;5.92;82.92;99982.28;5013520;28;20073;-76
2022/01/09 10:15:17;;;;;;;12.43;4.40;;;;;;;6.02;83.15;99984.16;5013189;28;20520;-74
2022/01/09 10:17:46;;;;;;;11.05;3.33;;;;;;;6.10;82.68;99980.78;5013334;28;20077;-75
2022/01/09 10:20:18;;;;;;;14.30;3.30;;;;;;;6.23;82.65;99983.59;5013194;28;20597;-76
2022/01/09 10:22:46;;;;;;;11.27;4.00;;;;;;;6.36;82.93;99983.78;5013283;28;20108;-76
2022/01/09 10:25:16;;;;;;;17.65;5.53;;;;;;;6.39;82.32;99989.09;5013258;28;20510;-75
2022/01/09 10:27:42;;;;;;;12.50;3.70;;;;;;;6.38;82.27;99995.16;5013286;28;20495;-75
2022/01/09 10:30:07;;;;;;;22.63;8.15;;;;;;;6.37;82.91;100001.28;5013226;28;20022;-75
2022/01/09 10:32:33;;;;;;;11.70;3.40;;;;;;;6.35;83.46;99997.78;5013225;28;20324;-76
2022/01/09 10:35:11;;;;;;;23.55;7.65;;;;;;;6.33;83.65;99996.84;5013214;28;20030;-77
2022/01/09 10:37:38;;;;;;;31.30;10.85;;;;;;;6.33;84.75;100004.72;5013316;28;20038;-77
2022/01/09 10:40:08;;;;;;;13.52;3.40;;;;;;;6.34;84.68;99998.59;5013558;28;20379;-75
2022/01/09 10:42:33;;;;;;;20.27;5.00;;;;;;;6.37;85.12;100002.16;5013138;28;20034;-77
2022/01/09 10:45:18;;;;;;;15.70;3.38;;;;;;;6.43;84.86;100002.28;5013130;28;20368;-76
2022/01/09 10:47:45;;;;;;;13.00;3.60;;;;;;;6.45;84.37;100007.53;5012966;28;20053;-78
2022/01/09 10:50:21;;;;;;;14.25;3.90;;;;;;;6.45;84.77;100011.03;5013104;28;20129;-76
2022/01/09 10:52:47;;;;;;;13.88;4.05;;;;;;;6.46;84.32;100007.53;5013120;28;20034;-76
2022/01/09 10:55:12;;;;;;;13.30;3.03;;;;;;;6.46;83.56;100012.78;5013053;28;20034;-75
2022/01/09 10:57:40;;;;;;;16.42;3.13;;;;;;;6.44;83.43;100011.91;5013065;28;20495;-76
2022/01/09 11:00:09;;;;;;;17.48;3.47;;;;;;;6.46;82.95;100014.53;5012907;28;20033;-76
2022/01/09 11:02:35;;;;;;;19.25;4.20;;;;;;;6.50;82.84;100025.09;5012816;28;20033;-76
2022/01/09 11:05:00;;;;;;;19.63;5.20;;;;;;;6.52;82.97;100017.25;5013020;28;20030;-75
2022/01/09 11:07:26;;;;;;;14.70;3.15;;;;;;;6.56;82.79;100029.56;5012981;28;20025;-76
2022/01/09 11:09:53;;;;;;;12.25;3.30;;;;;;;6.60;82.42;100025.25;5013064;28;20096;-76
2022/01/09 11:12:21;;;;;;;18.15;3.55;;;;;;;6.60;82.07;100034.00;5012979;28;20030;-76
2022/01/09 11:14:49;;;;;;;16.13;3.75;;;;;;;6.61;81.84;100029.63;5012737;28;20033;-77
2022/01/09 11:17:16;;;;;;;19.15;3.47;;;;;;;6.62;82.04;100034.88;5012746;28;20037;-77
2022/01/09 11:19:42;;;;;;;22.88;6.20;;;;;;;6.62;82.32;100044.50;5012981;28;20092;-75
2022/01/09 11:22:10;;;;;;;17.88;4.70;;;;;;;6.60;82.52;100044.50;5016350;28;20018;-77
2022/01/09 11:24:54;;;;;;;19.52;5.30;;;;;;;6.61;82.67;100046.25;5016523;28;20030;-76
2022/01/09 11:27:44;;;;;;;15.57;3.90;;;;;;;6.64;82.40;100048.06;5018181;28;20033;-77
2022/01/09 11:30:14;;;;;;;12.45;3.20;;;;;;;6.67;82.37;100048.06;5019989;28;20045;-76